Marysville, Washington
Current Conditions -  °F | °C
As of 8:35 AM on Sunday 21 Dec 2014 (Local Time) from KAWO Reporting Station
Overcast Overcast  
Wind Chill: 48°   Ceiling: 6500
Heat Index: 48°   Visibility: 10mi
Dew Point: 41°   Wind: 0mph
Humidity: 76%   Direction: NA
Pressure: 29.89"   Gusts: NA
Location:  48.06°N, 122.17°W
Report Text: KAWO 211635Z AUTO 00000KT 10SM OVC065 09/05 A2989 RMK AO1
Loading
Personal Weather Stations






























Interactive Weather Map New forecast layout! Learn more

10-Day Weather Forecast

Advertisements
Track Severe Weather on mobile